createdAt,value
2019-04-12T00:00:26.739Z,14.99
2019-04-12T00:01:27.263Z,15.02
2019-04-12T00:02:27.687Z,15.02
2019-04-12T00:03:30.596Z,15.05
2019-04-12T00:04:31.773Z,15.06
2019-04-12T00:05:29.726Z,15.08
2019-04-12T00:06:32.549Z,15.11
2019-04-12T00:07:32.485Z,15.13
2019-04-12T00:08:30.966Z,15.12
2019-04-12T00:09:30.986Z,15.13
2019-04-12T00:10:31.457Z,15.16
2019-04-12T00:11:31.977Z,15.18
2019-04-12T00:12:32.403Z,15.19
2019-04-12T00:13:32.874Z,15.21
2019-04-12T00:14:33.347Z,15.24
2019-04-12T00:15:33.820Z,15.26
2019-04-12T00:16:34.341Z,15.25
2019-04-12T00:17:34.762Z,15.25
2019-04-12T00:18:35.235Z,15.28
2019-04-12T00:19:35.708Z,15.29
2019-04-12T00:20:36.182Z,15.28
2019-04-12T00:21:36.654Z,15.20
2019-04-12T00:22:37.125Z,15.08
2019-04-12T00:23:37.598Z,14.94
2019-04-12T00:24:38.069Z,14.82
2019-04-12T00:25:38.541Z,14.72
2019-04-12T00:26:39.015Z,14.61
2019-04-12T00:27:39.486Z,14.46
2019-04-12T00:28:39.957Z,14.32
2019-04-12T00:29:40.430Z,14.17
2019-04-12T00:30:40.902Z,14.01
2019-04-12T00:31:41.376Z,13.84
2019-04-12T00:32:41.845Z,13.65
2019-04-12T00:33:42.317Z,13.47
2019-04-12T00:34:42.788Z,13.28
2019-04-12T00:35:43.261Z,13.11
2019-04-12T00:36:43.730Z,12.92
2019-04-12T00:37:44.198Z,12.74
2019-04-12T00:38:44.688Z,12.57
2019-04-12T00:39:45.139Z,12.41
2019-04-12T00:40:45.610Z,12.27
2019-04-12T00:41:46.131Z,12.16
2019-04-12T00:42:46.549Z,12.06
2019-04-12T00:43:47.019Z,11.98
2019-04-12T00:44:47.492Z,11.93
2019-04-12T00:45:47.956Z,11.90
2019-04-12T00:46:48.475Z,11.84
2019-04-12T00:47:48.893Z,11.81
2019-04-12T00:48:49.362Z,11.81
2019-04-12T00:49:49.830Z,11.82
2019-04-12T00:50:50.303Z,11.85
2019-04-12T00:51:50.771Z,11.90
2019-04-12T00:52:51.234Z,11.97
2019-04-12T00:53:51.704Z,12.06
2019-04-12T00:54:52.175Z,12.16
2019-04-12T00:55:52.647Z,12.23
2019-04-12T00:56:53.158Z,12.33
2019-04-12T00:57:53.584Z,12.39
2019-04-12T00:58:54.043Z,12.48
2019-04-12T00:59:54.547Z,12.54
2019-04-12T01:00:54.980Z,12.66
2019-04-12T01:01:55.450Z,12.73
2019-04-12T01:02:55.917Z,12.81
2019-04-12T01:03:56.386Z,12.89
2019-04-12T01:04:56.855Z,12.98
2019-04-12T01:05:57.321Z,13.03
2019-04-12T01:06:57.840Z,13.11
2019-04-12T01:07:58.259Z,13.20
2019-04-12T01:08:58.727Z,13.25
2019-04-12T01:09:59.195Z,13.34
2019-04-12T01:10:59.666Z,13.39
2019-04-12T01:12:00.136Z,13.47
2019-04-12T01:13:00.604Z,13.52
2019-04-12T01:14:01.072Z,13.57
2019-04-12T01:15:01.541Z,13.65
2019-04-12T01:16:04.346Z,13.72
2019-04-12T01:17:02.532Z,13.76
2019-04-12T01:18:02.955Z,13.83
2019-04-12T01:19:03.420Z,13.87
2019-04-12T01:20:04.790Z,13.89
2019-04-12T01:21:06.441Z,13.98
2019-04-12T01:22:07.882Z,14.02
2019-04-12T01:23:09.638Z,14.08
2019-04-12T01:24:08.219Z,14.13
2019-04-12T01:25:06.239Z,14.18
2019-04-12T01:26:06.715Z,14.23
2019-04-12T01:27:07.182Z,14.27
2019-04-12T01:28:07.649Z,14.30
2019-04-12T01:29:08.117Z,14.35
2019-04-12T01:30:08.589Z,14.41
2019-04-12T01:31:09.058Z,14.43
2019-04-12T01:32:09.532Z,14.46
2019-04-12T01:33:09.998Z,14.51
2019-04-12T01:34:10.469Z,14.54
2019-04-12T01:35:10.947Z,14.57
2019-04-12T01:36:11.613Z,14.62
2019-04-12T01:37:11.883Z,14.68
2019-04-12T01:38:12.357Z,14.69
2019-04-12T01:39:12.824Z,14.72
2019-04-12T01:40:13.297Z,14.75
2019-04-12T01:41:13.767Z,14.76
2019-04-12T01:42:14.239Z,14.82
2019-04-12T01:43:14.708Z,14.84
2019-04-12T01:44:15.181Z,14.85
2019-04-12T01:45:15.651Z,14.87
2019-04-12T01:46:16.125Z,14.88
2019-04-12T01:47:16.594Z,14.94
2019-04-12T01:48:17.067Z,14.97
2019-04-12T01:49:17.536Z,14.99
2019-04-12T01:50:18.009Z,15.01
2019-04-12T01:51:18.481Z,15.05
2019-04-12T01:52:18.955Z,15.04
2019-04-12T01:53:19.423Z,15.06
2019-04-12T01:54:19.896Z,15.08
2019-04-12T01:55:20.368Z,15.08
2019-04-12T01:56:20.840Z,15.12
2019-04-12T01:57:21.312Z,15.13
2019-04-12T01:58:21.783Z,15.14
2019-04-12T01:59:22.257Z,15.15
2019-04-12T02:00:22.727Z,15.17
2019-04-12T02:01:23.200Z,15.19
2019-04-12T02:02:23.690Z,15.20
2019-04-12T02:03:24.146Z,15.21
2019-04-12T02:04:24.617Z,15.24
2019-04-12T02:05:25.087Z,15.26
2019-04-12T02:06:25.570Z,15.31
2019-04-12T02:07:26.034Z,15.30
2019-04-12T02:08:26.505Z,15.31
2019-04-12T02:09:26.976Z,15.29
2019-04-12T02:10:27.450Z,15.21
2019-04-12T02:11:27.923Z,15.13
2019-04-12T02:12:28.401Z,15.01
2019-04-12T02:13:28.870Z,14.89
2019-04-12T02:14:29.344Z,14.75
2019-04-12T02:15:30.156Z,14.66
2019-04-12T02:16:30.285Z,14.52
2019-04-12T02:17:30.755Z,14.37
2019-04-12T02:18:31.230Z,14.24
2019-04-12T02:19:31.700Z,14.09
2019-04-12T02:20:32.174Z,13.92
2019-04-12T02:21:32.650Z,13.75
2019-04-12T02:22:33.114Z,13.55
2019-04-12T02:23:33.585Z,13.36
2019-04-12T02:24:34.060Z,13.18
2019-04-12T02:25:34.532Z,13.00
2019-04-12T02:26:34.998Z,12.83
2019-04-12T02:27:35.469Z,12.64
2019-04-12T02:28:35.940Z,12.48
2019-04-12T02:29:36.409Z,12.32
2019-04-12T02:30:36.879Z,12.20
2019-04-12T02:31:37.349Z,12.08
2019-04-12T02:32:37.817Z,11.99
2019-04-12T02:33:38.287Z,11.93
2019-04-12T02:34:38.757Z,11.89
2019-04-12T02:35:39.231Z,11.85
2019-04-12T02:36:39.693Z,11.82
2019-04-12T02:37:40.165Z,11.80
2019-04-12T02:38:40.631Z,11.80
2019-04-12T02:39:41.441Z,11.81
2019-04-12T02:40:41.567Z,11.85
2019-04-12T02:41:42.035Z,11.91
2019-04-12T02:42:42.504Z,11.99
2019-04-12T02:43:42.972Z,12.08
2019-04-12T02:44:43.439Z,12.17
2019-04-12T02:45:43.911Z,12.23
2019-04-12T02:46:44.377Z,12.33
2019-04-12T02:47:44.868Z,12.40
2019-04-12T02:48:45.313Z,12.49
2019-04-12T02:49:45.781Z,12.56
2019-04-12T02:50:46.253Z,12.66
2019-04-12T02:51:46.719Z,12.73
2019-04-12T02:52:47.185Z,12.82
2019-04-12T02:53:47.698Z,12.90
2019-04-12T02:54:48.122Z,13.01
2019-04-12T02:55:48.593Z,13.07
2019-04-12T02:56:49.061Z,13.15
2019-04-12T02:57:49.530Z,13.20
2019-04-12T02:58:49.996Z,13.28
2019-04-12T02:59:50.465Z,13.37
2019-04-12T03:00:50.935Z,13.45
2019-04-12T03:01:51.408Z,13.51
2019-04-12T03:02:51.925Z,13.55
2019-04-12T03:03:52.340Z,13.62
2019-04-12T03:04:52.810Z,13.72
2019-04-12T03:05:53.283Z,13.76
2019-04-12T03:06:53.749Z,13.82
2019-04-12T03:07:54.226Z,13.86
2019-04-12T03:08:54.690Z,13.91
2019-04-12T03:09:55.192Z,13.97
2019-04-12T03:10:55.627Z,14.02
2019-04-12T03:11:56.097Z,14.09
2019-04-12T03:12:56.566Z,14.11
2019-04-12T03:13:57.039Z,14.16
2019-04-12T03:14:57.853Z,14.20
2019-04-12T03:15:57.977Z,14.26
2019-04-12T03:16:58.449Z,14.30
2019-04-12T03:17:58.924Z,14.34
2019-04-12T03:18:59.397Z,14.40
2019-04-12T03:19:59.858Z,14.42
2019-04-12T03:21:00.332Z,14.46
2019-04-12T03:22:00.798Z,14.48
2019-04-12T03:23:01.321Z,14.53
2019-04-12T03:24:01.740Z,14.55
2019-04-12T03:25:02.213Z,14.58
2019-04-12T03:26:02.680Z,14.62
2019-04-12T03:27:03.155Z,14.65
2019-04-12T03:28:03.625Z,14.68
2019-04-12T03:29:04.098Z,14.71
2019-04-12T03:30:04.565Z,14.73
2019-04-12T03:31:05.130Z,14.77
2019-04-12T03:32:05.587Z,14.80
2019-04-12T03:33:05.979Z,14.81
2019-04-12T03:34:06.489Z,14.84
2019-04-12T03:35:06.925Z,14.86
2019-04-12T03:36:07.393Z,14.87
2019-04-12T03:37:07.865Z,14.90
2019-04-12T03:38:08.341Z,14.93
2019-04-12T03:39:08.807Z,14.93
2019-04-12T03:40:09.278Z,14.96
2019-04-12T03:41:09.753Z,15.01
2019-04-12T03:42:10.223Z,15.01
2019-04-12T03:43:10.749Z,15.02
2019-04-12T03:44:11.173Z,15.05
2019-04-12T03:45:11.642Z,15.05
2019-04-12T03:46:12.110Z,15.08
2019-04-12T03:47:12.582Z,15.07
2019-04-12T03:48:13.053Z,15.10
2019-04-12T03:49:13.528Z,15.11
2019-04-12T03:50:13.997Z,15.13
2019-04-12T03:51:14.483Z,15.16
2019-04-12T03:52:14.945Z,15.17
2019-04-12T03:53:15.413Z,15.19
2019-04-12T03:54:15.890Z,15.20
2019-04-12T03:55:16.366Z,15.23
2019-04-12T03:56:16.830Z,15.27
2019-04-12T03:57:17.303Z,15.26
2019-04-12T03:58:17.781Z,15.26
2019-04-12T03:59:18.248Z,15.27
2019-04-12T04:00:18.725Z,15.22
2019-04-12T04:01:19.195Z,15.14
2019-04-12T04:02:19.665Z,15.00
2019-04-12T04:03:20.139Z,14.86
2019-04-12T04:04:20.608Z,14.76
2019-04-12T04:05:21.159Z,14.67
2019-04-12T04:06:21.555Z,14.52
2019-04-12T04:07:22.028Z,14.37
2019-04-12T04:08:22.548Z,14.23
2019-04-12T04:09:22.971Z,14.09
2019-04-12T04:10:23.439Z,13.91
2019-04-12T04:11:23.915Z,13.73
2019-04-12T04:12:24.383Z,13.55
2019-04-12T04:13:24.857Z,13.37
2019-04-12T04:14:25.327Z,13.19
2019-04-12T04:15:25.798Z,13.01
2019-04-12T04:16:26.268Z,12.83
2019-04-12T04:17:26.739Z,12.64
2019-04-12T04:18:27.208Z,12.47
2019-04-12T04:19:27.682Z,12.32
2019-04-12T04:20:28.149Z,12.19
2019-04-12T04:21:28.620Z,12.10
2019-04-12T04:22:29.092Z,12.01
2019-04-12T04:23:29.809Z,11.93
2019-04-12T04:24:30.028Z,11.88
2019-04-12T04:25:30.495Z,11.85
2019-04-12T04:26:30.964Z,11.80
2019-04-12T04:27:31.433Z,11.78
2019-04-12T04:28:31.898Z,11.78
2019-04-12T04:29:32.368Z,11.79
2019-04-12T04:30:32.835Z,11.82
2019-04-12T04:31:33.305Z,11.83
2019-04-12T04:32:33.774Z,11.91
2019-04-12T04:33:34.242Z,12.02
2019-04-12T04:34:34.712Z,12.11
2019-04-12T04:35:35.177Z,12.18
2019-04-12T04:36:35.646Z,12.27
2019-04-12T04:37:36.115Z,12.35
2019-04-12T04:38:36.579Z,12.43
2019-04-12T04:39:37.080Z,12.52
2019-04-12T04:40:37.527Z,12.59
2019-04-12T04:41:37.986Z,12.69
2019-04-12T04:42:38.453Z,12.76
2019-04-12T04:43:38.973Z,12.86
2019-04-12T04:44:39.398Z,12.94
2019-04-12T04:45:39.863Z,12.98
2019-04-12T04:46:40.326Z,13.06
2019-04-12T04:47:40.797Z,13.12
2019-04-12T04:48:41.263Z,13.19
2019-04-12T04:49:41.738Z,13.26
2019-04-12T04:50:42.202Z,13.33
2019-04-12T04:51:42.677Z,13.39
2019-04-12T04:52:43.139Z,13.46
2019-04-12T04:53:43.658Z,13.52
2019-04-12T04:54:44.076Z,13.56
2019-04-12T04:55:44.545Z,13.61
2019-04-12T04:56:45.018Z,13.67
2019-04-12T04:57:45.485Z,13.71
2019-04-12T04:58:45.952Z,13.79
2019-04-12T04:59:46.422Z,13.83
2019-04-12T05:00:46.894Z,13.87
2019-04-12T05:01:47.363Z,13.93
2019-04-12T05:02:47.838Z,13.97
2019-04-12T05:03:48.314Z,14.01
2019-04-12T05:04:48.776Z,14.06
2019-04-12T05:05:49.242Z,14.09
2019-04-12T05:06:50.051Z,14.15
2019-04-12T05:07:50.181Z,14.20
2019-04-12T05:08:50.651Z,14.23
2019-04-12T05:09:51.122Z,14.26
2019-04-12T05:10:51.592Z,14.29
2019-04-12T05:11:52.063Z,14.34
2019-04-12T05:12:52.540Z,14.38
2019-04-12T05:13:53.054Z,14.40
2019-04-12T05:14:53.474Z,14.44
2019-04-12T05:15:53.944Z,14.46
2019-04-12T05:16:54.415Z,14.50
2019-04-12T05:17:54.888Z,14.52
2019-04-12T05:18:55.408Z,14.57
2019-04-12T05:19:55.828Z,14.61
2019-04-12T05:20:56.303Z,14.62
2019-04-12T05:21:56.771Z,14.64
2019-04-12T05:22:57.240Z,14.66
2019-04-12T05:23:57.863Z,14.67
2019-04-12T05:24:58.183Z,14.70
2019-04-12T05:25:58.653Z,14.75
2019-04-12T05:26:59.133Z,14.77
2019-04-12T05:27:59.597Z,14.78
2019-04-12T05:29:00.068Z,14.79
2019-04-12T05:30:00.539Z,14.81
2019-04-12T05:31:01.010Z,14.84
2019-04-12T05:32:01.486Z,14.88
2019-04-12T05:33:01.954Z,14.91
2019-04-12T05:34:02.427Z,14.92
2019-04-12T05:35:02.898Z,14.94
2019-04-12T05:36:03.368Z,14.94
2019-04-12T05:37:10.206Z,14.97
2019-04-12T05:38:04.312Z,15.03
2019-04-12T05:39:04.834Z,15.02
2019-04-12T05:40:05.256Z,15.03
2019-04-12T05:41:05.728Z,15.06
2019-04-12T05:42:06.203Z,15.08
2019-04-12T05:43:06.672Z,15.11
2019-04-12T05:44:07.144Z,15.12
2019-04-12T05:45:07.616Z,15.12
2019-04-12T05:46:08.087Z,15.16
2019-04-12T05:47:08.559Z,15.16
2019-04-12T05:48:09.033Z,15.20
2019-04-12T05:49:09.504Z,15.16
2019-04-12T05:50:09.976Z,15.19
2019-04-12T05:51:10.446Z,15.20
2019-04-12T05:52:10.923Z,15.23
2019-04-12T05:53:11.392Z,15.21
2019-04-12T05:54:11.866Z,15.22
2019-04-12T05:55:12.336Z,15.23
2019-04-12T05:56:12.810Z,15.21
2019-04-12T05:57:13.286Z,15.19
2019-04-12T05:58:13.757Z,15.07
2019-04-12T05:59:14.228Z,14.96
2019-04-12T06:00:14.900Z,14.83
2019-04-12T06:01:16.896Z,14.71
2019-04-12T06:02:15.644Z,14.61
2019-04-12T06:03:16.118Z,14.47
2019-04-12T06:04:16.590Z,14.34
2019-04-12T06:05:17.060Z,14.19
2019-04-12T06:06:17.538Z,14.06
2019-04-12T06:07:18.002Z,13.88
2019-04-12T06:08:18.473Z,13.70
2019-04-12T06:09:19.001Z,13.52
2019-04-12T06:10:19.419Z,13.34
2019-04-12T06:11:19.890Z,13.15
2019-04-12T06:12:20.361Z,12.97
2019-04-12T06:13:20.830Z,12.80
2019-04-12T06:14:21.302Z,12.61
2019-04-12T06:15:21.771Z,12.45
2019-04-12T06:16:22.242Z,12.30
2019-04-12T06:17:22.713Z,12.18
2019-04-12T06:18:23.349Z,12.08
2019-04-12T06:19:23.701Z,12.00
2019-04-12T06:20:24.120Z,11.94
2019-04-12T06:21:24.587Z,11.89
2019-04-12T06:22:25.057Z,11.84
2019-04-12T06:23:25.728Z,11.81
2019-04-12T06:24:26.006Z,11.80
2019-04-12T06:25:26.463Z,11.81
2019-04-12T06:26:26.934Z,11.84
2019-04-12T06:27:27.399Z,11.88
2019-04-12T06:28:27.869Z,11.95
2019-04-12T06:29:28.337Z,12.03
2019-04-12T06:30:28.806Z,12.11
2019-04-12T06:31:29.291Z,12.20
2019-04-12T06:33:30.216Z,12.37
2019-04-12T06:34:30.676Z,12.45
2019-04-12T06:35:31.148Z,12.51
2019-04-12T06:36:31.612Z,12.60
2019-04-12T06:37:32.086Z,12.69
2019-04-12T06:38:32.549Z,12.77
2019-04-12T06:39:33.017Z,12.86
2019-04-12T06:40:33.486Z,12.93
2019-04-12T06:41:33.955Z,13.00
2019-04-12T06:42:34.427Z,13.10
2019-04-12T06:43:34.894Z,13.17
2019-04-12T06:44:35.362Z,13.23
2019-04-12T06:45:35.831Z,13.32
2019-04-12T06:46:36.297Z,13.38
2019-04-12T06:47:36.768Z,13.44
2019-04-12T06:48:37.236Z,13.51
2019-04-12T06:49:37.755Z,13.58
2019-04-12T06:50:38.178Z,13.65
2019-04-12T06:51:38.645Z,13.72
2019-04-12T06:52:39.114Z,13.76
2019-04-12T06:53:39.588Z,13.83
2019-04-12T06:54:40.102Z,13.87
2019-04-12T06:55:40.519Z,13.91
2019-04-12T06:56:40.991Z,13.98
2019-04-12T06:57:41.463Z,14.01
2019-04-12T06:58:41.935Z,14.06
2019-04-12T06:59:42.704Z,14.11
2019-04-12T07:00:42.872Z,14.15
2019-04-12T07:01:43.339Z,14.18
2019-04-12T07:02:43.811Z,14.22
2019-04-12T07:03:56.048Z,14.26
2019-04-12T07:04:44.750Z,14.33
2019-04-12T07:05:45.221Z,14.36
2019-04-12T07:06:45.697Z,14.39
2019-04-12T07:07:46.364Z,14.42
2019-04-12T07:08:46.642Z,14.45
2019-04-12T07:09:47.155Z,14.47
2019-04-12T07:10:47.573Z,14.51
2019-04-12T07:11:48.043Z,14.54
2019-04-12T07:12:48.513Z,14.57
2019-04-12T07:13:48.988Z,14.58
2019-04-12T07:14:49.505Z,14.61
2019-04-12T07:15:49.927Z,14.67
2019-04-12T07:17:50.871Z,14.70
2019-04-12T07:18:51.340Z,14.73
2019-04-12T07:19:51.861Z,14.74
2019-04-12T07:20:52.283Z,14.76
2019-04-12T07:21:52.753Z,14.77
2019-04-12T07:22:53.225Z,14.78
2019-04-12T07:23:53.696Z,14.83
2019-04-12T07:24:54.220Z,14.83
2019-04-12T07:25:54.640Z,14.85
2019-04-12T07:26:55.114Z,14.89
2019-04-12T07:27:55.582Z,14.89
2019-04-12T07:28:56.054Z,14.91
2019-04-12T07:29:56.524Z,14.95
2019-04-12T07:30:57.331Z,14.97
2019-04-12T07:31:57.469Z,14.98
2019-04-12T07:32:58.142Z,14.99
2019-04-12T07:33:58.412Z,15.03
2019-04-12T07:34:58.884Z,15.05
2019-04-12T07:36:01.842Z,15.07
2019-04-12T07:36:59.827Z,15.06
2019-04-12T07:38:00.303Z,15.04
2019-04-12T07:39:00.773Z,15.06
2019-04-12T07:40:01.243Z,15.02
2019-04-12T07:41:01.717Z,14.92
2019-04-12T07:42:02.189Z,14.80
2019-04-12T07:43:02.661Z,14.67
2019-04-12T07:44:03.131Z,14.61
2019-04-12T07:45:03.655Z,14.48
2019-04-12T07:46:04.074Z,14.31
2019-04-12T07:47:04.547Z,14.17
2019-04-12T07:48:05.018Z,14.05
2019-04-12T07:49:05.491Z,13.90
2019-04-12T07:50:05.963Z,13.74
2019-04-12T07:51:06.438Z,13.55
2019-04-12T07:52:06.904Z,13.37
2019-04-12T07:53:07.376Z,13.20
2019-04-12T07:54:07.847Z,13.02
2019-04-12T07:55:08.367Z,12.85
2019-04-12T07:56:08.787Z,12.68
2019-04-12T07:57:09.260Z,12.52
2019-04-12T07:58:09.729Z,12.38
2019-04-12T07:59:10.195Z,12.28
2019-04-12T08:00:10.716Z,12.19
2019-04-12T08:01:11.134Z,12.11
2019-04-12T08:02:11.606Z,12.05
2019-04-12T08:03:12.072Z,12.00
2019-04-12T08:04:12.543Z,11.96
2019-04-12T08:05:13.071Z,11.93
2019-04-12T08:06:13.481Z,11.93
2019-04-12T08:07:13.985Z,11.94
2019-04-12T08:08:14.416Z,11.99
2019-04-12T08:09:14.885Z,12.05
2019-04-12T08:10:15.402Z,12.11
2019-04-12T08:11:15.821Z,12.19
2019-04-12T08:12:16.290Z,12.29
2019-04-12T08:13:16.756Z,12.38
2019-04-12T08:14:19.240Z,12.45
2019-04-12T08:15:17.948Z,12.54
2019-04-12T08:16:18.163Z,12.62
2019-04-12T08:17:18.629Z,12.72
2019-04-12T08:18:19.108Z,12.79
2019-04-12T08:19:19.569Z,12.86
2019-04-12T08:20:20.086Z,12.93
2019-04-12T08:21:20.508Z,13.01
2019-04-12T08:22:20.978Z,13.08
2019-04-12T08:23:21.444Z,13.15
2019-04-12T08:24:21.909Z,13.22
2019-04-12T08:25:22.433Z,13.27
2019-04-12T08:26:23.049Z,13.35
2019-04-12T08:27:23.317Z,13.41
2019-04-12T08:28:23.785Z,13.47
2019-04-12T08:29:24.253Z,13.54
2019-04-12T08:30:24.772Z,13.59
2019-04-12T08:31:25.199Z,13.66
2019-04-12T08:32:25.662Z,13.74
2019-04-12T08:33:26.130Z,13.77
2019-04-12T08:34:26.607Z,13.81
2019-04-12T08:35:27.120Z,13.90
2019-04-12T08:36:27.880Z,13.90
2019-04-12T08:37:28.008Z,14.00
2019-04-12T08:38:28.479Z,14.03
2019-04-12T08:39:28.948Z,14.08
2019-04-12T08:40:29.468Z,14.11
2019-04-12T08:41:30.093Z,14.17
2019-04-12T08:43:30.830Z,14.26
2019-04-12T08:44:31.298Z,14.30
2019-04-12T08:45:31.770Z,14.36
2019-04-12T08:46:32.245Z,14.39
2019-04-12T08:47:32.733Z,14.41
2019-04-12T08:48:33.211Z,14.46
2019-04-12T08:49:33.667Z,14.50
2019-04-12T08:50:34.120Z,14.54
2019-04-12T08:51:34.590Z,14.58
2019-04-12T08:52:35.091Z,14.61
2019-04-12T08:53:35.539Z,14.65
2019-04-12T08:54:36.005Z,14.69
2019-04-12T08:55:36.736Z,14.71
2019-04-12T08:56:37.303Z,14.73
2019-04-12T08:57:37.875Z,14.78
2019-04-12T08:58:37.934Z,14.81
2019-04-12T08:59:38.401Z,14.82
2019-04-12T09:00:39.758Z,14.84
2019-04-12T09:01:39.323Z,14.87
2019-04-12T09:02:39.847Z,14.87
2019-04-12T09:03:40.283Z,14.90
2019-04-12T09:04:40.776Z,14.90
2019-04-12T09:05:41.614Z,14.93
2019-04-12T09:06:41.663Z,14.97
2019-04-12T09:07:42.212Z,14.98
2019-04-12T09:08:42.731Z,15.01
2019-04-12T09:09:43.175Z,15.04
2019-04-12T09:10:43.636Z,15.06
2019-04-12T09:11:44.077Z,15.04
2019-04-12T09:12:44.488Z,15.08
2019-04-12T09:13:45.384Z,15.13
2019-04-12T09:14:45.505Z,15.14
2019-04-12T09:15:45.946Z,15.15
2019-04-12T09:16:46.458Z,15.15
2019-04-12T09:17:46.920Z,15.16
2019-04-12T09:18:47.681Z,15.17
2019-04-12T09:19:47.877Z,15.19
2019-04-12T09:20:48.325Z,15.22
2019-04-12T09:21:48.752Z,15.21
2019-04-12T09:22:49.210Z,15.26
2019-04-12T09:23:49.685Z,15.27
2019-04-12T09:24:50.234Z,15.25
2019-04-12T09:25:50.690Z,15.28
2019-04-12T09:26:51.101Z,15.29
2019-04-12T09:27:51.642Z,15.32
2019-04-12T09:28:52.053Z,15.31
2019-04-12T09:29:52.628Z,15.30
2019-04-12T09:30:52.990Z,15.23
2019-04-12T09:31:53.460Z,15.13
2019-04-12T09:32:53.934Z,14.99
2019-04-12T09:33:54.407Z,14.88
2019-04-12T09:34:54.881Z,14.77
2019-04-12T09:35:55.354Z,14.65
2019-04-12T09:36:55.826Z,14.50
2019-04-12T09:37:56.297Z,14.36
2019-04-12T09:38:56.768Z,14.23
2019-04-12T09:39:57.241Z,14.07
2019-04-12T09:40:57.717Z,13.91
2019-04-12T09:41:58.195Z,13.72
2019-04-12T09:42:58.659Z,13.54
2019-04-12T09:43:59.125Z,13.37
2019-04-12T09:44:59.595Z,13.20
2019-04-12T09:46:00.117Z,13.02
2019-04-12T09:47:00.543Z,12.85
2019-04-12T09:48:01.008Z,12.67
2019-04-12T09:49:01.480Z,12.51
2019-04-12T09:50:01.948Z,12.37
2019-04-12T09:51:02.423Z,12.25
2019-04-12T09:52:02.888Z,12.16
2019-04-12T09:53:03.358Z,12.08
2019-04-12T09:54:03.827Z,12.03
2019-04-12T09:55:04.295Z,11.99
2019-04-12T09:56:04.766Z,11.95
2019-04-12T09:57:05.231Z,11.91
2019-04-12T09:58:05.702Z,11.91
2019-04-12T09:59:06.174Z,11.92
2019-04-12T10:00:06.638Z,11.95
2019-04-12T10:01:07.155Z,11.97
2019-04-12T10:02:13.701Z,12.05
2019-04-12T10:03:08.044Z,12.12
2019-04-12T10:04:08.510Z,12.19
2019-04-12T10:05:09.321Z,12.28
2019-04-12T10:06:09.500Z,12.39
2019-04-12T10:07:09.915Z,12.46
2019-04-12T10:08:10.385Z,12.53
2019-04-12T10:09:14.179Z,12.61
2019-04-12T10:10:11.318Z,12.69
2019-04-12T10:11:11.838Z,12.77
2019-04-12T10:12:12.464Z,12.85
2019-04-12T10:13:12.726Z,12.93
2019-04-12T10:14:14.583Z,12.99
2019-04-12T10:15:13.663Z,13.09
2019-04-12T10:16:14.333Z,13.16
2019-04-12T10:17:14.600Z,13.22
2019-04-12T10:18:15.068Z,13.30
2019-04-12T10:19:15.540Z,13.39
2019-04-12T10:20:16.007Z,13.43
2019-04-12T10:21:16.476Z,13.48
2019-04-12T10:22:16.944Z,13.55
2019-04-12T10:23:17.416Z,13.61
2019-04-12T10:24:18.801Z,13.67
2019-04-12T10:25:18.355Z,13.75
2019-04-12T10:26:18.869Z,13.81
2019-04-12T10:27:19.289Z,13.84
2019-04-12T10:28:20.239Z,13.90
2019-04-12T10:29:20.234Z,13.96
2019-04-12T10:30:20.697Z,14.01
2019-04-12T10:31:21.170Z,14.07
2019-04-12T10:32:21.638Z,14.10
2019-04-12T10:33:22.108Z,14.16
2019-04-12T10:34:24.111Z,14.19
2019-04-12T10:35:23.110Z,14.23
2019-04-12T10:36:23.518Z,14.29
2019-04-12T10:37:23.988Z,14.30
2019-04-12T10:38:24.458Z,14.37
2019-04-12T10:39:24.929Z,14.42
2019-04-12T10:40:25.400Z,14.44
2019-04-12T10:41:26.123Z,14.45
2019-04-12T10:42:26.541Z,14.51
2019-04-12T10:43:26.811Z,14.57
2019-04-12T10:44:27.280Z,14.59
2019-04-12T10:45:27.751Z,14.63
2019-04-12T10:46:28.280Z,14.67
2019-04-12T10:47:28.696Z,14.68
2019-04-12T10:48:29.165Z,14.72
2019-04-12T10:49:29.856Z,14.72
2019-04-12T10:50:30.107Z,14.77
2019-04-12T10:51:30.578Z,14.79
2019-04-12T10:52:31.084Z,14.82
2019-04-12T10:53:31.524Z,14.86
2019-04-12T10:54:34.028Z,14.89
2019-04-12T10:55:32.466Z,14.90
2019-04-12T10:56:32.936Z,14.94
2019-04-12T10:57:33.404Z,14.95
2019-04-12T10:58:33.879Z,14.98
2019-04-12T10:59:34.351Z,15.00
2019-04-12T11:00:34.825Z,15.01
2019-04-12T11:01:35.342Z,15.01
2019-04-12T11:02:35.763Z,15.07
2019-04-12T11:03:36.236Z,15.08
2019-04-12T11:04:36.708Z,15.08
2019-04-12T11:05:37.177Z,15.09
2019-04-12T11:06:37.649Z,15.13
2019-04-12T11:07:38.125Z,15.16
2019-04-12T11:08:38.593Z,15.17
2019-04-12T11:09:39.068Z,15.18
2019-04-12T11:10:39.538Z,15.21
2019-04-12T11:11:40.060Z,15.23
2019-04-12T11:12:40.484Z,15.24
2019-04-12T11:13:40.956Z,15.24
2019-04-12T11:14:41.428Z,15.28
2019-04-12T11:15:41.899Z,15.31
2019-04-12T11:16:42.421Z,15.31
2019-04-12T11:17:42.843Z,15.34
2019-04-12T11:18:43.316Z,15.33
2019-04-12T11:19:43.792Z,15.34
2019-04-12T11:20:44.261Z,15.36
2019-04-12T11:21:44.730Z,15.39
2019-04-12T11:22:45.205Z,15.38
2019-04-12T11:23:45.679Z,15.32
2019-04-12T11:24:46.151Z,15.31
2019-04-12T11:25:46.621Z,15.18
2019-04-12T11:26:47.096Z,15.04
2019-04-12T11:27:47.567Z,14.93
2019-04-12T11:28:48.041Z,14.81
2019-04-12T11:29:48.513Z,14.69
2019-04-12T11:30:48.997Z,14.54
2019-04-12T11:31:49.458Z,14.40
2019-04-12T11:32:49.935Z,14.28
2019-04-12T11:33:50.399Z,14.13
2019-04-12T11:34:50.872Z,13.94
2019-04-12T11:35:51.343Z,13.76
2019-04-12T11:36:51.819Z,13.59
2019-04-12T11:37:52.490Z,13.41
2019-04-12T11:38:52.758Z,13.24
2019-04-12T11:39:53.228Z,13.06
2019-04-12T11:40:53.705Z,12.88
2019-04-12T11:41:54.217Z,12.72
2019-04-12T11:42:54.645Z,12.55
2019-04-12T11:43:55.111Z,12.42
2019-04-12T11:44:55.581Z,12.29
2019-04-12T11:45:56.049Z,12.20
2019-04-12T11:46:56.517Z,12.12
2019-04-12T11:47:56.987Z,12.05
2019-04-12T11:48:57.457Z,12.01
2019-04-12T11:49:57.925Z,11.97
2019-04-12T11:50:58.393Z,11.94
2019-04-12T11:51:58.862Z,11.94
2019-04-12T11:52:59.333Z,11.96
2019-04-12T11:53:59.797Z,11.98
2019-04-12T11:55:00.268Z,12.02
2019-04-12T11:56:00.739Z,12.10
2019-04-12T11:57:01.257Z,12.18
2019-04-12T11:58:01.678Z,12.28
2019-04-12T11:59:02.346Z,12.36
2019-04-12T12:00:02.609Z,12.45
2019-04-12T12:01:03.083Z,12.52
2019-04-12T12:02:03.597Z,12.59
2019-04-12T12:03:04.012Z,12.70
2019-04-12T12:04:04.485Z,12.78
2019-04-12T12:05:04.961Z,12.89
2019-04-12T12:06:05.421Z,12.94
2019-04-12T12:07:05.942Z,13.01
2019-04-12T12:08:06.358Z,13.10
2019-04-12T12:09:06.832Z,13.18
2019-04-12T12:10:07.295Z,13.26
2019-04-12T12:11:07.761Z,13.34
2019-04-12T12:12:08.282Z,13.40
2019-04-12T12:13:08.700Z,13.48
2019-04-12T12:14:09.172Z,13.54
2019-04-12T12:15:09.640Z,13.59
2019-04-12T12:16:10.159Z,13.66
2019-04-12T12:17:10.628Z,13.73
2019-04-12T12:18:11.046Z,13.76
2019-04-12T12:19:11.518Z,13.82
2019-04-12T12:20:11.984Z,13.90
2019-04-12T12:21:12.453Z,13.95
2019-04-12T12:22:12.925Z,14.01
2019-04-12T12:23:13.391Z,14.05
2019-04-12T12:24:13.863Z,14.13
2019-04-12T12:25:14.332Z,14.14
2019-04-12T12:26:14.803Z,14.21
2019-04-12T12:27:15.322Z,14.26
2019-04-12T12:28:15.742Z,14.28
2019-04-12T12:29:16.218Z,14.34
2019-04-12T12:30:16.695Z,14.39
2019-04-12T12:31:17.153Z,14.44
2019-04-12T12:32:17.625Z,14.47
2019-04-12T12:33:18.095Z,14.51
2019-04-12T12:34:18.566Z,14.56
2019-04-12T12:35:19.038Z,14.59
2019-04-12T12:36:19.505Z,14.64
2019-04-12T12:37:19.977Z,14.65
2019-04-12T12:38:20.449Z,14.72
2019-04-12T12:39:20.921Z,14.72
2019-04-12T12:40:21.389Z,14.76
2019-04-12T12:41:21.861Z,14.78
2019-04-12T12:42:22.381Z,14.79
2019-04-12T12:43:22.802Z,14.84
2019-04-12T12:44:23.276Z,14.86
2019-04-12T12:45:23.749Z,14.86
2019-04-12T12:46:24.217Z,14.90
2019-04-12T12:47:24.688Z,14.94
2019-04-12T12:48:25.160Z,14.97
2019-04-12T12:49:25.630Z,14.99
2019-04-12T12:50:26.100Z,15.01
2019-04-12T12:51:26.573Z,15.02
2019-04-12T12:52:27.044Z,15.08
2019-04-12T12:53:27.519Z,15.10
2019-04-12T12:54:27.987Z,15.09
2019-04-12T12:55:28.461Z,15.11
2019-04-12T12:56:28.933Z,15.13
2019-04-12T12:57:29.515Z,15.17
2019-04-12T12:58:29.887Z,15.17
2019-04-12T12:59:30.347Z,15.21
2019-04-12T13:00:30.819Z,15.22
2019-04-12T13:01:31.292Z,15.22